Rabat-Sale, Morocco

11:34 PM WET on January 26, 2015 (GMT +0000)
Colegio Espanol de Rabat | Change Station
CLOSE
Current Station
Personal Weather Station
Location: Rabat, RABAT-SAL�-ZEMUR-ZAER
Elevation: 167 ft
Nearby Weather Stations

Elev 167 ft 34.01 °N, 6.82 °W | Updated 4 minutes ago

Scattered Clouds
Scattered Clouds
50.5 °F
Feels Like 50.5 °F
N
0.0
Wind Variable Wind from NNW
Gusts 5.0 mph

Today
High -- | Low -- °F
--% Chance of Precip.
Yesterday
High -- | Low -- °F
Precip. -- in
7:28 AM 5:51 PM
Waxing Crescent, 48% visible
Pressure 30.36 in
Visibility 1.9 miles
Clouds Scattered Clouds 600 ft
Dew Point 49 °F
Humidity 94%
Rainfall 0.02 in
Snow Depth Not available.
UV 0.0 out of 12
Pollen Not available.
Air Quality Not available.
Flu Activity Not available.
METAR GMME 262330Z 15003KT 120V180 3000 BR SCT006 09/08 Q1028

More Conditions Fewer Conditions

Pressure 30.36 in
Visibility 1.9 miles
Clouds Scattered Clouds 600 ft
Dew Point 49 °F
Humidity 94%
Rainfall 0.02 in
Snow Depth Not available.
UV 0.0 out of 12
Pollen Not available.
Air Quality Not available.
Flu Activity Not available.
METAR GMME 262330Z 15003KT 120V180 3000 BR SCT006 09/08 Q1028

More Conditions Fewer Conditions

10-Day Weather Forecast

Almanac

Astronomy

Jan. 26, 2015 Rise Set
Actual Time
Civil Twilight
Nautical Twilight
Astronomical Twilight
Moon
Length of Visible Light
Length of Day
Tomorrow will be .
, % of the Moon is Illuminated

Today's Extremes

Country Highs Country Lows

Community

WunderPhotos

Upload Photos

1,790,394 photos uploaded!

WunderBlogs® & News

Nearby

Air Quality

  Air Quality AQ Index Pollutant
Not available.

Snow Depth

Station Depth Elevation

Earthquake Activity

City Distance Mag. Time & Date
Minimum magnitude displayed is 2.5.

Coastal Water Temperatures

Place Temperature

Nearby Weather Stations